sensor_id;sensor_type;location;lat;lon;timestamp;pressure;altitude;pressure_sealevel;temperature;humidity
60089;BME280;45961;53.574;55.878;2023-04-20T00:00:00;100736.66;;;5.33;53.88
60089;BME280;45961;53.574;55.878;2023-04-20T00:01:01;100729.72;;;5.31;53.66
60089;BME280;45961;53.574;55.878;2023-04-20T00:02:03;100742.03;;;5.39;53.57
60089;BME280;45961;53.574;55.878;2023-04-20T00:03:05;100745.38;;;5.38;53.58
60089;BME280;45961;53.574;55.878;2023-04-20T00:04:07;100738.59;;;5.39;53.57
60089;BME280;45961;53.574;55.878;2023-04-20T00:05:08;100735.13;;;5.38;53.40
60089;BME280;45961;53.574;55.878;2023-04-20T00:06:10;100730.19;;;5.43;53.07
60089;BME280;45961;53.574;55.878;2023-04-20T00:07:11;100733.72;;;5.47;53.03
60089;BME280;45961;53.574;55.878;2023-04-20T00:08:12;100731.97;;;5.45;52.93
60089;BME280;45961;53.574;55.878;2023-04-20T00:09:13;100734.97;;;5.56;52.54
60089;BME280;45961;53.574;55.878;2023-04-20T00:10:14;100729.75;;;5.55;52.49
60089;BME280;45961;53.574;55.878;2023-04-20T00:11:16;100731.34;;;5.51;52.61
60089;BME280;45961;53.574;55.878;2023-04-20T00:12:16;100720.00;;;5.46;52.64
60089;BME280;45961;53.574;55.878;2023-04-20T00:13:18;100734.72;;;5.50;52.85
60089;BME280;45961;53.574;55.878;2023-04-20T00:14:19;100728.88;;;5.54;52.73
60089;BME280;45961;53.574;55.878;2023-04-20T00:15:20;100709.41;;;5.37;53.13
60089;BME280;45961;53.574;55.878;2023-04-20T00:16:21;100727.66;;;5.44;53.04
60089;BME280;45961;53.574;55.878;2023-04-20T00:17:23;100723.44;;;5.47;52.83
60089;BME280;45961;53.574;55.878;2023-04-20T00:18:24;100731.97;;;5.45;53.04
60089;BME280;45961;53.574;55.878;2023-04-20T00:19:25;100727.66;;;5.44;52.89
60089;BME280;45961;53.574;55.878;2023-04-20T00:20:27;100733.09;;;5.52;52.84
60089;BME280;45961;53.574;55.878;2023-04-20T00:21:28;100732.94;;;5.48;52.91
60089;BME280;45961;53.574;55.878;2023-04-20T00:22:29;100727.00;;;5.50;53.13
60089;BME280;45961;53.574;55.878;2023-04-20T00:23:30;100728.69;;;5.50;53.09
60089;BME280;45961;53.574;55.878;2023-04-20T00:24:31;100731.63;;;5.59;52.31
60089;BME280;45961;53.574;55.878;2023-04-20T00:25:32;100724.03;;;5.62;52.19
60089;BME280;45961;53.574;55.878;2023-04-20T00:26:33;100729.13;;;5.60;52.24
60089;BME280;45961;53.574;55.878;2023-04-20T00:27:35;100724.91;;;5.62;52.07
60089;BME280;45961;53.574;55.878;2023-04-20T00:28:37;100726.44;;;5.57;52.23
60089;BME280;45961;53.574;55.878;2023-04-20T00:29:41;100723.16;;;5.61;51.96
60089;BME280;45961;53.574;55.878;2023-04-20T00:30:42;100724.25;;;5.68;51.68
60089;BME280;45961;53.574;55.878;2023-04-20T00:31:44;100718.44;;;5.72;51.68
60089;BME280;45961;53.574;55.878;2023-04-20T00:32:48;100728.81;;;5.75;51.46
60089;BME280;45961;53.574;55.878;2023-04-20T00:33:49;100725.13;;;5.68;51.40
60089;BME280;45961;53.574;55.878;2023-04-20T00:34:49;100723.72;;;5.77;51.28
60089;BME280;45961;53.574;55.878;2023-04-20T00:35:51;100719.25;;;5.71;51.20
60089;BME280;45961;53.574;55.878;2023-04-20T00:36:52;100726.06;;;5.70;51.51
60089;BME280;45961;53.574;55.878;2023-04-20T00:37:53;100720.03;;;5.70;51.51
60089;BME280;45961;53.574;55.878;2023-04-20T00:38:54;100720.44;;;5.81;50.95
60089;BME280;45961;53.574;55.878;2023-04-20T00:39:56;100710.72;;;5.72;51.14
60089;BME280;45961;53.574;55.878;2023-04-20T00:40:59;100719.41;;;5.76;50.84
60089;BME280;45961;53.574;55.878;2023-04-20T00:42:04;100719.50;;;5.79;51.04
60089;BME280;45961;53.574;55.878;2023-04-20T00:43:13;100714.31;;;5.77;50.92
60089;BME280;45961;53.574;55.878;2023-04-20T00:44:14;100710.88;;;5.77;50.81
60089;BME280;45961;53.574;55.878;2023-04-20T00:45:15;100708.34;;;5.78;50.92
60089;BME280;45961;53.574;55.878;2023-04-20T00:46:17;100719.50;;;5.79;51.06
60089;BME280;45961;53.574;55.878;2023-04-20T00:47:18;100727.81;;;5.72;51.36
60089;BME280;45961;53.574;55.878;2023-04-20T00:48:20;100721.91;;;5.74;51.24
60089;BME280;45961;53.574;55.878;2023-04-20T00:49:25;100724.75;;;5.82;51.40
60089;BME280;45961;53.574;55.878;2023-04-20T00:50:28;100725.69;;;5.84;51.25
60089;BME280;45961;53.574;55.878;2023-04-20T00:51:29;100730.16;;;5.89;50.76
60089;BME280;45961;53.574;55.878;2023-04-20T00:52:31;100706.03;;;5.84;50.69
60089;BME280;45961;53.574;55.878;2023-04-20T00:53:33;100711.63;;;5.97;50.02
60089;BME280;45961;53.574;55.878;2023-04-20T00:54:34;100705.31;;;5.88;49.94
60089;BME280;45961;53.574;55.878;2023-04-20T00:55:37;100719.34;;;5.97;49.98
60089;BME280;45961;53.574;55.878;2023-04-20T00:56:38;100722.91;;;6.00;49.96
60089;BME280;45961;53.574;55.878;2023-04-20T00:57:41;100715.22;;;6.02;49.59
60089;BME280;45961;53.574;55.878;2023-04-20T00:58:44;100713.53;;;6.02;49.28
60089;BME280;45961;53.574;55.878;2023-04-20T00:59:45;100716.97;;;6.03;49.35
60089;BME280;45961;53.574;55.878;2023-04-20T01:00:48;100708.53;;;6.07;49.38
60089;BME280;45961;53.574;55.878;2023-04-20T01:01:51;100712.94;;;6.09;49.26
60089;BME280;45961;53.574;55.878;2023-04-20T01:02:52;100723.22;;;6.09;49.85
60089;BME280;45961;53.574;55.878;2023-04-20T01:03:54;100720.78;;;6.14;49.61
60089;BME280;45961;53.574;55.878;2023-04-20T01:04:55;100701.78;;;6.09;49.18
60089;BME280;45961;53.574;55.878;2023-04-20T01:05:56;100716.91;;;6.25;48.76
60089;BME280;45961;53.574;55.878;2023-04-20T01:06:57;100715.34;;;6.30;48.52
60089;BME280;45961;53.574;55.878;2023-04-20T01:07:58;100711.91;;;6.30;48.84
60089;BME280;45961;53.574;55.878;2023-04-20T01:09:03;100715.63;;;6.38;48.62
60089;BME280;45961;53.574;55.878;2023-04-20T01:10:08;100721.75;;;6.41;48.38
60089;BME280;45961;53.574;55.878;2023-04-20T01:11:09;100712.31;;;6.42;48.48
60089;BME280;45961;53.574;55.878;2023-04-20T01:12:10;100714.16;;;6.45;48.42
60089;BME280;45961;53.574;55.878;2023-04-20T01:13:11;100714.75;;;6.37;48.80
60089;BME280;45961;53.574;55.878;2023-04-20T01:14:12;100728.31;;;6.33;48.75
60089;BME280;45961;53.574;55.878;2023-04-20T01:15:13;100731.03;;;6.38;48.83
60089;BME280;45961;53.574;55.878;2023-04-20T01:16:14;100727.75;;;6.42;48.81
60089;BME280;45961;53.574;55.878;2023-04-20T01:17:17;100727.00;;;6.45;48.13
60089;BME280;45961;53.574;55.878;2023-04-20T01:18:20;100732.34;;;6.51;47.88
60089;BME280;45961;53.574;55.878;2023-04-20T01:19:21;100735.84;;;6.53;48.04
60089;BME280;45961;53.574;55.878;2023-04-20T01:20:22;100736.94;;;6.59;47.37
60089;BME280;45961;53.574;55.878;2023-04-20T01:21:24;100730.34;;;6.67;46.80
60089;BME280;45961;53.574;55.878;2023-04-20T01:22:26;100737.47;;;6.76;46.61
60089;BME280;45961;53.574;55.878;2023-04-20T01:23:27;100728.09;;;6.78;45.92
60089;BME280;45961;53.574;55.878;2023-04-20T01:24:28;100701.25;;;6.70;45.79
60089;BME280;45961;53.574;55.878;2023-04-20T01:25:29;100722.59;;;6.93;46.66
60089;BME280;45961;53.574;55.878;2023-04-20T01:26:30;100723.44;;;7.21;47.26
60089;BME280;45961;53.574;55.878;2023-04-20T01:27:31;100730.91;;;7.40;47.47
60089;BME280;45961;53.574;55.878;2023-04-20T01:28:35;100743.66;;;7.65;47.63
60089;BME280;45961;53.574;55.878;2023-04-20T01:29:36;100742.19;;;7.74;44.91
60089;BME280;45961;53.574;55.878;2023-04-20T01:30:37;100754.16;;;7.72;44.07
60089;BME280;45961;53.574;55.878;2023-04-20T01:31:38;100752.53;;;7.75;44.53
60089;BME280;45961;53.574;55.878;2023-04-20T01:32:40;100756.03;;;7.77;44.23
60089;BME280;45961;53.574;55.878;2023-04-20T01:33:40;100750.91;;;7.79;43.47
60089;BME280;45961;53.574;55.878;2023-04-20T01:34:41;100740.44;;;7.73;43.05
60089;BME280;45961;53.574;55.878;2023-04-20T01:35:43;100750.81;;;7.76;42.61
60089;BME280;45961;53.574;55.878;2023-04-20T01:36:44;100748.97;;;7.70;42.40
60089;BME280;45961;53.574;55.878;2023-04-20T01:37:45;100737.47;;;7.59;43.13
60089;BME280;45961;53.574;55.878;2023-04-20T01:38:46;100752.38;;;7.69;43.63
60089;BME280;45961;53.574;55.878;2023-04-20T01:39:48;100753.25;;;7.70;43.86
60089;BME280;45961;53.574;55.878;2023-04-20T01:40:49;100752.41;;;7.71;43.73
60089;BME280;45961;53.574;55.878;2023-04-20T01:41:50;100746.50;;;7.75;42.98
60089;BME280;45961;53.574;55.878;2023-04-20T01:42:51;100749.09;;;7.75;42.43
60089;BME280;45961;53.574;55.878;2023-04-20T01:43:52;100740.50;;;7.76;42.92
60089;BME280;45961;53.574;55.878;2023-04-20T01:44:53;100738.88;;;7.78;42.92
60089;BME280;45961;53.574;55.878;2023-04-20T01:45:55;100738.97;;;7.81;43.12
60089;BME280;45961;53.574;55.878;2023-04-20T01:46:56;100749.19;;;7.78;43.51
60089;BME280;45961;53.574;55.878;2023-04-20T01:47:57;100752.41;;;7.71;43.63
60089;BME280;45961;53.574;55.878;2023-04-20T01:48:58;100755.59;;;7.62;44.07
60089;BME280;45961;53.574;55.878;2023-04-20T01:49:59;100749.69;;;7.66;44.04
60089;BME280;45961;53.574;55.878;2023-04-20T01:51:00;100741.94;;;7.64;44.11
60089;BME280;45961;53.574;55.878;2023-04-20T01:52:01;100742.56;;;7.57;44.75
60089;BME280;45961;53.574;55.878;2023-04-20T01:53:02;100751.22;;;7.59;44.96
60089;BME280;45961;53.574;55.878;2023-04-20T01:54:04;100746.84;;;7.57;45.02
60089;BME280;45961;53.574;55.878;2023-04-20T01:55:05;100751.16;;;7.56;45.30
60089;BME280;45961;53.574;55.878;2023-04-20T01:56:06;100750.44;;;7.62;45.00
60089;BME280;45961;53.574;55.878;2023-04-20T01:57:07;100756.53;;;7.64;45.02
60089;BME280;45961;53.574;55.878;2023-04-20T01:58:08;100742.81;;;7.65;44.95
60089;BME280;45961;53.574;55.878;2023-04-20T01:59:10;100729.56;;;7.53;45.33
60089;BME280;45961;53.574;55.878;2023-04-20T02:00:11;100733.69;;;7.48;45.49
60089;BME280;45961;53.574;55.878;2023-04-20T02:01:15;100728.63;;;7.51;45.47
60089;BME280;45961;53.574;55.878;2023-04-20T02:02:16;100736.50;;;7.55;45.26
60089;BME280;45961;53.574;55.878;2023-04-20T02:03:17;100722.69;;;7.52;44.98
60089;BME280;45961;53.574;55.878;2023-04-20T02:04:19;100743.44;;;7.58;44.88
60089;BME280;45961;53.574;55.878;2023-04-20T02:05:20;100738.19;;;7.55;44.86
60089;BME280;45961;53.574;55.878;2023-04-20T02:06:21;100732.75;;;7.44;44.99
60089;BME280;45961;53.574;55.878;2023-04-20T02:07:22;100730.31;;;7.49;44.85
60089;BME280;45961;53.574;55.878;2023-04-20T02:08:24;100742.38;;;7.51;45.08
60089;BME280;45961;53.574;55.878;2023-04-20T02:09:25;100751.28;;;7.61;45.04
60089;BME280;45961;53.574;55.878;2023-04-20T02:10:26;100744.44;;;7.63;44.93
60089;BME280;45961;53.574;55.878;2023-04-20T02:11:27;100748.78;;;7.64;44.90
60089;BME280;45961;53.574;55.878;2023-04-20T02:12:28;100744.53;;;7.66;44.86
60089;BME280;45961;53.574;55.878;2023-04-20T02:13:29;100745.53;;;7.71;45.10
60089;BME280;45961;53.574;55.878;2023-04-20T02:14:41;100752.38;;;7.69;45.00
60089;BME280;45961;53.574;55.878;2023-04-20T02:15:44;100750.78;;;7.74;44.94
60089;BME280;45961;53.574;55.878;2023-04-20T02:16:46;100745.72;;;7.77;45.03
60089;BME280;45961;53.574;55.878;2023-04-20T02:17:47;100750.06;;;7.78;45.03
60089;BME280;45961;53.574;55.878;2023-04-20T02:18:52;100747.59;;;7.83;45.16
60089;BME280;45961;53.574;55.878;2023-04-20T02:19:54;100759.69;;;7.84;45.20
60089;BME280;45961;53.574;55.878;2023-04-20T02:20:55;100747.59;;;7.83;45.16
60089;BME280;45961;53.574;55.878;2023-04-20T02:21:57;100750.03;;;7.77;44.95
60089;BME280;45961;53.574;55.878;2023-04-20T02:22:57;100730.16;;;7.73;44.88
60089;BME280;45961;53.574;55.878;2023-04-20T02:23:59;100738.88;;;7.78;45.11
60089;BME280;45961;53.574;55.878;2023-04-20T02:25:02;100743.31;;;7.83;44.99
60089;BME280;45961;53.574;55.878;2023-04-20T02:26:04;100735.47;;;7.79;44.77
60089;BME280;45961;53.574;55.878;2023-04-20T02:27:05;100743.31;;;7.83;44.87
60089;BME280;45961;53.574;55.878;2023-04-20T02:28:07;100737.16;;;7.78;45.14
60089;BME280;45961;53.574;55.878;2023-04-20T02:29:08;100736.41;;;7.82;45.28
60089;BME280;45961;53.574;55.878;2023-04-20T02:30:09;100743.31;;;7.83;44.86
60089;BME280;45961;53.574;55.878;2023-04-20T02:31:10;100739.13;;;7.87;45.02
60089;BME280;45961;53.574;55.878;2023-04-20T02:32:11;100720.22;;;7.86;44.89
60089;BME280;45961;53.574;55.878;2023-04-20T02:33:12;100741.97;;;7.96;44.92
60089;BME280;45961;53.574;55.878;2023-04-20T02:34:13;100735.88;;;7.93;44.93
60089;BME280;45961;53.574;55.878;2023-04-20T02:35:15;100738.44;;;7.93;45.17
60089;BME280;45961;53.574;55.878;2023-04-20T02:36:17;100736.47;;;7.84;45.07
60089;BME280;45961;53.574;55.878;2023-04-20T02:37:18;100731.63;;;7.95;44.97
60089;BME280;45961;53.574;55.878;2023-04-20T02:38:19;100729.88;;;7.94;45.36
60089;BME280;45961;53.574;55.878;2023-04-20T02:39:20;100725.47;;;7.89;45.35
60089;BME280;45961;53.574;55.878;2023-04-20T02:40:21;100735.88;;;7.93;45.64
60089;BME280;45961;53.574;55.878;2023-04-20T02:41:22;100734.38;;;8.01;45.67
60089;BME280;45961;53.574;55.878;2023-04-20T02:42:23;100738.59;;;7.99;45.64
60089;BME280;45961;53.574;55.878;2023-04-20T02:43:24;100732.78;;;8.06;45.46
60089;BME280;45961;53.574;55.878;2023-04-20T02:44:25;100732.66;;;8.01;45.78
60089;BME280;45961;53.574;55.878;2023-04-20T02:45:26;100732.75;;;8.04;45.68
60089;BME280;45961;53.574;55.878;2023-04-20T02:46:28;100733.50;;;8.00;46.03
60089;BME280;45961;53.574;55.878;2023-04-20T02:47:28;100735.19;;;8.00;45.92
60089;BME280;45961;53.574;55.878;2023-04-20T02:48:30;100733.50;;;8.00;45.84
60089;BME280;45961;53.574;55.878;2023-04-20T02:49:33;100742.16;;;8.04;45.83
60089;BME280;45961;53.574;55.878;2023-04-20T02:50:34;100743.19;;;8.09;45.88
60089;BME280;45961;53.574;55.878;2023-04-20T02:51:42;100733.88;;;8.14;45.59
60089;BME280;45961;53.574;55.878;2023-04-20T02:52:43;100732.28;;;8.19;45.67
60089;BME280;45961;53.574;55.878;2023-04-20T02:53:44;100739.22;;;8.20;45.72
60089;BME280;45961;53.574;55.878;2023-04-20T02:54:52;100734.19;;;8.26;45.34
60089;BME280;45961;53.574;55.878;2023-04-20T02:55:53;100736.88;;;8.29;45.46
60089;BME280;45961;53.574;55.878;2023-04-20T02:57:03;100741.28;;;8.33;45.44
60089;BME280;45961;53.574;55.878;2023-04-20T02:58:04;100734.41;;;8.34;45.77
60089;BME280;45961;53.574;55.878;2023-04-20T02:59:26;100733.53;;;8.33;45.57
60089;BME280;45961;53.574;55.878;2023-04-20T03:00:38;100731.97;;;8.38;45.28
60089;BME280;45961;53.574;55.878;2023-04-20T03:01:42;100735.50;;;8.42;45.17
60089;BME280;45961;53.574;55.878;2023-04-20T03:02:53;100736.38;;;8.43;44.92
60089;BME280;45961;53.574;55.878;2023-04-20T03:03:54;100729.56;;;8.45;44.31
60089;BME280;45961;53.574;55.878;2023-04-20T03:04:55;100735.81;;;8.54;44.08
60089;BME280;45961;53.574;55.878;2023-04-20T03:05:56;100722.34;;;8.64;43.87
60089;BME280;45961;53.574;55.878;2023-04-20T03:06:58;100728.34;;;8.65;43.74
60089;BME280;45961;53.574;55.878;2023-04-20T03:08:03;100732.75;;;8.69;43.24
60089;BME280;45961;53.574;55.878;2023-04-20T03:09:07;100737.22;;;8.76;43.05
60089;BME280;45961;53.574;55.878;2023-04-20T03:10:28;100733.75;;;8.74;42.97
60089;BME280;45961;53.574;55.878;2023-04-20T03:11:37;100734.59;;;8.73;43.01
60089;BME280;45961;53.574;55.878;2023-04-20T03:12:38;100726.00;;;8.74;43.00
60089;BME280;45961;53.574;55.878;2023-04-20T03:13:57;100728.78;;;8.83;43.15
60089;BME280;45961;53.574;55.878;2023-04-20T03:14:58;100721.13;;;8.86;43.25
60089;BME280;45961;53.574;55.878;2023-04-20T03:16:12;100711.72;;;8.88;42.93
60089;BME280;45961;53.574;55.878;2023-04-20T03:17:19;100718.75;;;8.96;42.87
60089;BME280;45961;53.574;55.878;2023-04-20T03:18:20;100727.50;;;9.01;42.90
60089;BME280;45961;53.574;55.878;2023-04-20T03:19:22;100724.09;;;9.02;42.97
60089;BME280;45961;53.574;55.878;2023-04-20T03:20:23;100723.34;;;9.07;42.97
60089;BME280;45961;53.574;55.878;2023-04-20T03:21:24;100722.38;;;9.02;42.97
60089;BME280;45961;53.574;55.878;2023-04-20T03:22:25;100717.19;;;9.02;42.53
60089;BME280;45961;53.574;55.878;2023-04-20T03:23:30;100716.34;;;9.03;42.61
60089;BME280;45961;53.574;55.878;2023-04-20T03:24:31;100714.81;;;9.10;42.58
60089;BME280;45961;53.574;55.878;2023-04-20T03:25:37;100729.44;;;9.11;42.45
60089;BME280;45961;53.574;55.878;2023-04-20T03:26:49;100725.31;;;9.18;42.32
60089;BME280;45961;53.574;55.878;2023-04-20T03:27:53;100721.97;;;9.23;42.44
60089;BME280;45961;53.574;55.878;2023-04-20T03:28:55;100722.84;;;9.24;42.43
60089;BME280;45961;53.574;55.878;2023-04-20T03:29:59;100721.19;;;9.26;42.50
60089;BME280;45961;53.574;55.878;2023-04-20T03:31:00;100719.41;;;9.23;42.57
60089;BME280;45961;53.574;55.878;2023-04-20T03:32:03;100716.13;;;9.30;42.74
60089;BME280;45961;53.574;55.878;2023-04-20T03:33:04;100712.66;;;9.30;42.68
60089;BME280;45961;53.574;55.878;2023-04-20T03:34:06;100719.56;;;9.29;42.71
60089;BME280;45961;53.574;55.878;2023-04-20T03:35:11;100718.63;;;9.27;42.62
60089;BME280;45961;53.574;55.878;2023-04-20T03:36:14;100724.91;;;9.38;42.55
60089;BME280;45961;53.574;55.878;2023-04-20T03:37:16;100716.28;;;9.38;42.59
60089;BME280;45961;53.574;55.878;2023-04-20T03:38:21;100716.38;;;9.41;42.19
60089;BME280;45961;53.574;55.878;2023-04-20T03:39:22;100724.31;;;9.50;41.87
60089;BME280;45961;53.574;55.878;2023-04-20T03:40:23;100716.56;;;9.50;41.34
60089;BME280;45961;53.574;55.878;2023-04-20T03:41:24;100713.28;;;9.59;41.00
60089;BME280;45961;53.574;55.878;2023-04-20T03:42:25;100717.84;;;9.72;40.86
60089;BME280;45961;53.574;55.878;2023-04-20T03:43:26;100715.47;;;9.81;40.75
60089;BME280;45961;53.574;55.878;2023-04-20T03:44:28;100712.16;;;9.88;40.70
60089;BME280;45961;53.574;55.878;2023-04-20T03:45:29;100708.94;;;10.00;40.68
60089;BME280;45961;53.574;55.878;2023-04-20T03:46:30;100707.50;;;10.14;40.29
60089;BME280;45961;53.574;55.878;2023-04-20T03:47:31;100713.53;;;10.15;40.08
60089;BME280;45961;53.574;55.878;2023-04-20T03:48:32;100708.44;;;10.20;40.09
60089;BME280;45961;53.574;55.878;2023-04-20T03:49:34;100704.28;;;10.26;39.92
60089;BME280;45961;53.574;55.878;2023-04-20T03:50:35;100697.53;;;10.34;39.92
60089;BME280;45961;53.574;55.878;2023-04-20T03:51:36;100711.41;;;10.40;39.51
60089;BME280;45961;53.574;55.878;2023-04-20T03:52:40;100710.69;;;10.47;39.95
60089;BME280;45961;53.574;55.878;2023-04-20T03:53:41;100714.09;;;10.44;39.93
60089;BME280;45961;53.574;55.878;2023-04-20T03:54:44;100709.84;;;10.48;39.83
60089;BME280;45961;53.574;55.878;2023-04-20T03:55:48;100709.97;;;10.57;39.63
60089;BME280;45961;53.574;55.878;2023-04-20T03:56:54;100702.31;;;10.61;39.65
60089;BME280;45961;53.574;55.878;2023-04-20T03:57:57;100701.47;;;10.64;39.65
60089;BME280;45961;53.574;55.878;2023-04-20T03:58:59;100701.72;;;10.78;39.12
60089;BME280;45961;53.574;55.878;2023-04-20T04:00:02;100700.00;;;10.80;39.23
60089;BME280;45961;53.574;55.878;2023-04-20T04:01:18;100686.31;;;10.87;39.31
60089;BME280;45961;53.574;55.878;2023-04-20T04:02:22;100694.16;;;10.93;38.99
60089;BME280;45961;53.574;55.878;2023-04-20T04:03:24;100695.13;;;11.00;38.97
60089;BME280;45961;53.574;55.878;2023-04-20T04:04:25;100704.56;;;10.95;38.69
60089;BME280;45961;53.574;55.878;2023-04-20T04:05:26;100695.19;;;11.03;38.56
60089;BME280;45961;53.574;55.878;2023-04-20T04:06:27;100682.81;;;10.83;38.31
60089;BME280;45961;53.574;55.878;2023-04-20T04:07:28;100698.53;;;10.96;38.31
60089;BME280;45961;53.574;55.878;2023-04-20T04:08:30;100699.38;;;10.95;38.52
60089;BME280;45961;53.574;55.878;2023-04-20T04:09:32;100689.78;;;10.87;38.67
60089;BME280;45961;53.574;55.878;2023-04-20T04:10:33;100693.34;;;10.94;38.36
60089;BME280;45961;53.574;55.878;2023-04-20T04:11:34;100696.94;;;11.04;38.46
60089;BME280;45961;53.574;55.878;2023-04-20T04:12:35;100691.84;;;11.10;38.13
60089;BME280;45961;53.574;55.878;2023-04-20T04:13:37;100691.75;;;11.05;38.03
60089;BME280;45961;53.574;55.878;2023-04-20T04:14:41;100687.50;;;11.09;37.65
60089;BME280;45961;53.574;55.878;2023-04-20T04:15:43;100663.47;;;11.21;37.65
60089;BME280;45961;53.574;55.878;2023-04-20T04:16:47;100688.25;;;11.66;37.57
60089;BME280;45961;53.574;55.878;2023-04-20T04:17:49;100680.06;;;12.05;36.89
60089;BME280;45961;53.574;55.878;2023-04-20T04:18:50;100679.50;;;12.33;36.33
60089;BME280;45961;53.574;55.878;2023-04-20T04:19:51;100676.19;;;12.53;35.90
60089;BME280;45961;53.574;55.878;2023-04-20T04:20:52;100672.00;;;12.70;36.03
60089;BME280;45961;53.574;55.878;2023-04-20T04:21:54;100661.72;;;12.84;35.39
60089;BME280;45961;53.574;55.878;2023-04-20T04:22:55;100669.59;;;12.95;34.79
60089;BME280;45961;53.574;55.878;2023-04-20T04:24:17;100665.38;;;13.14;34.47
60089;BME280;45961;53.574;55.878;2023-04-20T04:25:27;100672.44;;;13.31;34.27
60089;BME280;45961;53.574;55.878;2023-04-20T04:26:29;100668.09;;;13.33;34.14
60089;BME280;45961;53.574;55.878;2023-04-20T04:27:31;100662.09;;;13.39;34.00
60089;BME280;45961;53.574;55.878;2023-04-20T04:28:36;100668.22;;;13.56;33.83
60089;BME280;45961;53.574;55.878;2023-04-20T04:29:57;100666.47;;;13.54;33.23
60089;BME280;45961;53.574;55.878;2023-04-20T04:30:58;100659.56;;;13.61;33.33
60089;BME280;45961;53.574;55.878;2023-04-20T04:32:07;100664.81;;;13.68;32.84
60089;BME280;45961;53.574;55.878;2023-04-20T04:33:11;100663.94;;;13.68;32.67
60089;BME280;45961;53.574;55.878;2023-04-20T04:34:16;100660.41;;;13.56;32.79
60089;BME280;45961;53.574;55.878;2023-04-20T04:35:22;100662.25;;;13.79;32.72
60089;BME280;45961;53.574;55.878;2023-04-20T04:36:23;100664.00;;;13.89;32.74
60089;BME280;45961;53.574;55.878;2023-04-20T04:37:26;100659.69;;;14.05;32.75
60089;BME280;45961;53.574;55.878;2023-04-20T04:38:29;100656.22;;;14.00;32.49
60089;BME280;45961;53.574;55.878;2023-04-20T04:39:33;100652.75;;;13.99;32.20
60089;BME280;45961;53.574;55.878;2023-04-20T04:40:42;100660.56;;;14.04;32.03
60089;BME280;45961;53.574;55.878;2023-04-20T04:41:45;100661.44;;;14.00;32.18
60089;BME280;45961;53.574;55.878;2023-04-20T04:42:58;100659.72;;;14.11;32.26
60089;BME280;45961;53.574;55.878;2023-04-20T04:44:00;100654.53;;;14.23;31.99
60089;BME280;45961;53.574;55.878;2023-04-20T04:45:05;100655.38;;;14.33;31.70
60089;BME280;45961;53.574;55.878;2023-04-20T04:46:09;100645.84;;;14.40;31.51
60089;BME280;45961;53.574;55.878;2023-04-20T04:47:11;100658.00;;;14.45;31.63
60089;BME280;45961;53.574;55.878;2023-04-20T04:48:12;100650.19;;;14.38;31.60
60089;BME280;45961;53.574;55.878;2023-04-20T04:49:13;100662.31;;;14.14;30.93
60089;BME280;45961;53.574;55.878;2023-04-20T04:50:15;100660.56;;;14.15;31.07
60089;BME280;45961;53.574;55.878;2023-04-20T04:51:16;100655.41;;;14.31;31.22
60089;BME280;45961;53.574;55.878;2023-04-20T04:52:17;100652.78;;;14.42;31.22
60089;BME280;45961;53.574;55.878;2023-04-20T04:53:18;100655.38;;;14.45;31.17
60089;BME280;45961;53.574;55.878;2023-04-20T04:54:19;100654.56;;;14.52;31.01
60089;BME280;45961;53.574;55.878;2023-04-20T04:55:20;100651.06;;;14.66;31.12
60089;BME280;45961;53.574;55.878;2023-04-20T04:56:21;100651.06;;;14.82;31.09
60089;BME280;45961;53.574;55.878;2023-04-20T04:57:23;100651.03;;;14.90;30.63
60089;BME280;45961;53.574;55.878;2023-04-20T04:58:24;100644.94;;;15.08;30.56
60089;BME280;45961;53.574;55.878;2023-04-20T04:59:25;100650.16;;;14.91;30.07
60089;BME280;45961;53.574;55.878;2023-04-20T05:00:26;100646.69;;;15.04;30.54
60089;BME280;45961;53.574;55.878;2023-04-20T05:01:29;100641.41;;;15.18;30.31
60089;BME280;45961;53.574;55.878;2023-04-20T05:02:30;100642.25;;;15.23;30.15
60089;BME280;45961;53.574;55.878;2023-04-20T05:03:31;100649.19;;;15.27;30.41
60089;BME280;45961;53.574;55.878;2023-04-20T05:04:32;100642.25;;;15.23;30.30
60089;BME280;45961;53.574;55.878;2023-04-20T05:05:33;100648.34;;;15.27;30.49
60089;BME280;45961;53.574;55.878;2023-04-20T05:06:34;100638.75;;;15.40;30.05
60089;BME280;45961;53.574;55.878;2023-04-20T05:07:35;100641.34;;;15.35;29.99
60089;BME280;45961;53.574;55.878;2023-04-20T05:08:37;100642.22;;;15.39;29.82
60089;BME280;45961;53.574;55.878;2023-04-20T05:09:39;100644.78;;;15.51;30.13
60089;BME280;45961;53.574;55.878;2023-04-20T05:10:40;100638.75;;;15.37;29.58
60089;BME280;45961;53.574;55.878;2023-04-20T05:11:41;100640.47;;;15.44;30.02
60089;BME280;45961;53.574;55.878;2023-04-20T05:12:42;100640.44;;;15.53;29.98
60089;BME280;45961;53.574;55.878;2023-04-20T05:13:44;100628.19;;;15.64;29.83
60089;BME280;45961;53.574;55.878;2023-04-20T05:14:45;100636.88;;;15.72;29.40
60089;BME280;45961;53.574;55.878;2023-04-20T05:15:46;100629.88;;;15.82;29.62
60089;BME280;45961;53.574;55.878;2023-04-20T05:16:47;100621.16;;;15.83;29.38
60089;BME280;45961;53.574;55.878;2023-04-20T05:17:48;100635.13;;;15.74;29.66
60089;BME280;45961;53.574;55.878;2023-04-20T05:18:49;100627.28;;;15.74;30.05
60089;BME280;45961;53.574;55.878;2023-04-20T05:19:50;100631.56;;;15.88;29.80
60089;BME280;45961;53.574;55.878;2023-04-20T05:20:51;100621.97;;;15.93;29.65
60089;BME280;45961;53.574;55.878;2023-04-20T05:21:52;100621.03;;;16.00;29.60
60089;BME280;45961;53.574;55.878;2023-04-20T05:22:54;100622.81;;;15.98;29.13
60089;BME280;45961;53.574;55.878;2023-04-20T05:23:55;100628.13;;;15.81;29.71
60089;BME280;45961;53.574;55.878;2023-04-20T05:24:56;100622.81;;;15.96;30.10